sensor_id;sensor_type;location;lat;lon;timestamp;temperature;humidity
77700;DHT22;66867;42.658;23.320;2023-08-30T00:00:00;23.2;75
77700;DHT22;66867;42.658;23.320;2023-08-30T00:01:00;23.1;75
77700;DHT22;66867;42.658;23.320;2023-08-30T00:02:00;23.0;75
77700;DHT22;66867;42.658;23.320;2023-08-30T00:03:00;23.1;76
77700;DHT22;66867;42.658;23.320;2023-08-30T00:04:00;23.1;75
77700;DHT22;66867;42.658;23.320;2023-08-30T00:05:00;23.1;75
77700;DHT22;66867;42.658;23.320;2023-08-30T00:06:03;23.1;76
77700;DHT22;66867;42.658;23.320;2023-08-30T00:07:00;23.1;76
77700;DHT22;66867;42.658;23.320;2023-08-30T00:08:00;23.1;76
77700;DHT22;66867;42.658;23.320;2023-08-30T00:09:00;23.1;76
77700;DHT22;66867;42.658;23.320;2023-08-30T00:10:00;23.1;75
77700;DHT22;66867;42.658;23.320;2023-08-30T00:11:00;23.1;75
77700;DHT22;66867;42.658;23.320;2023-08-30T00:12:00;23.1;76
77700;DHT22;66867;42.658;23.320;2023-08-30T00:13:00;23.1;76
77700;DHT22;66867;42.658;23.320;2023-08-30T00:14:03;23.1;76
77700;DHT22;66867;42.658;23.320;2023-08-30T00:15:00;23.0;77
77700;DHT22;66867;42.658;23.320;2023-08-30T00:16:00;23.0;77
77700;DHT22;66867;42.658;23.320;2023-08-30T00:17:00;23.0;73
77700;DHT22;66867;42.658;23.320;2023-08-30T00:18:00;23.0;70
77700;DHT22;66867;42.658;23.320;2023-08-30T00:19:00;22.9;69
77700;DHT22;66867;42.658;23.320;2023-08-30T00:20:00;22.9;68
77700;DHT22;66867;42.658;23.320;2023-08-30T00:21:00;22.9;69
77700;DHT22;66867;42.658;23.320;2023-08-30T00:22:00;22.8;69
77700;DHT22;66867;42.658;23.320;2023-08-30T00:23:00;22.8;69
77700;DHT22;66867;42.658;23.320;2023-08-30T00:24:00;22.8;69
77700;DHT22;66867;42.658;23.320;2023-08-30T00:25:00;22.8;69
77700;DHT22;66867;42.658;23.320;2023-08-30T00:26:00;22.7;68
77700;DHT22;66867;42.658;23.320;2023-08-30T00:27:01;22.8;68
77700;DHT22;66867;42.658;23.320;2023-08-30T00:28:00;22.8;68
77700;DHT22;66867;42.658;23.320;2023-08-30T00:29:00;22.8;69
77700;DHT22;66867;42.658;23.320;2023-08-30T00:30:00;22.8;69
77700;DHT22;66867;42.658;23.320;2023-08-30T00:31:00;22.8;69
77700;DHT22;66867;42.658;23.320;2023-08-30T00:32:00;22.8;69
77700;DHT22;66867;42.658;23.320;2023-08-30T00:33:00;22.7;68
77700;DHT22;66867;42.658;23.320;2023-08-30T00:34:00;22.8;68
77700;DHT22;66867;42.658;23.320;2023-08-30T00:35:00;22.8;68
77700;DHT22;66867;42.658;23.320;2023-08-30T00:36:00;22.8;68
77700;DHT22;66867;42.658;23.320;2023-08-30T00:37:00;22.8;67
77700;DHT22;66867;42.658;23.320;2023-08-30T00:38:00;22.8;68
77700;DHT22;66867;42.658;23.320;2023-08-30T00:39:00;22.7;68
77700;DHT22;66867;42.658;23.320;2023-08-30T00:40:00;22.7;68
77700;DHT22;66867;42.658;23.320;2023-08-30T00:41:00;22.7;68
77700;DHT22;66867;42.658;23.320;2023-08-30T00:42:00;22.7;68
77700;DHT22;66867;42.658;23.320;2023-08-30T00:43:00;22.7;68
77700;DHT22;66867;42.658;23.320;2023-08-30T00:44:00;22.7;68
77700;DHT22;66867;42.658;23.320;2023-08-30T00:45:00;22.7;68
77700;DHT22;66867;42.658;23.320;2023-08-30T00:46:00;22.7;68
77700;DHT22;66867;42.658;23.320;2023-08-30T00:47:00;22.7;67
77700;DHT22;66867;42.658;23.320;2023-08-30T00:48:00;22.7;67
77700;DHT22;66867;42.658;23.320;2023-08-30T00:49:00;22.7;67
77700;DHT22;66867;42.658;23.320;2023-08-30T00:50:00;22.7;67
77700;DHT22;66867;42.658;23.320;2023-08-30T00:51:00;22.7;67
77700;DHT22;66867;42.658;23.320;2023-08-30T00:52:01;22.7;66
77700;DHT22;66867;42.658;23.320;2023-08-30T00:53:00;22.7;66
77700;DHT22;66867;42.658;23.320;2023-08-30T00:54:00;22.7;67
77700;DHT22;66867;42.658;23.320;2023-08-30T00:55:00;22.7;67
77700;DHT22;66867;42.658;23.320;2023-08-30T00:56:00;22.7;67
77700;DHT22;66867;42.658;23.320;2023-08-30T00:57:00;22.7;67
77700;DHT22;66867;42.658;23.320;2023-08-30T00:58:00;22.8;66
77700;DHT22;66867;42.658;23.320;2023-08-30T00:59:00;22.8;67
77700;DHT22;66867;42.658;23.320;2023-08-30T01:00:00;22.7;67
77700;DHT22;66867;42.658;23.320;2023-08-30T01:01:00;22.7;66
77700;DHT22;66867;42.658;23.320;2023-08-30T01:02:00;22.7;66
77700;DHT22;66867;42.658;23.320;2023-08-30T01:03:00;22.7;66
77700;DHT22;66867;42.658;23.320;2023-08-30T01:04:00;22.8;66
77700;DHT22;66867;42.658;23.320;2023-08-30T01:05:00;22.8;67
77700;DHT22;66867;42.658;23.320;2023-08-30T01:06:00;22.8;67
77700;DHT22;66867;42.658;23.320;2023-08-30T01:07:00;22.7;67
77700;DHT22;66867;42.658;23.320;2023-08-30T01:08:00;22.7;67
77700;DHT22;66867;42.658;23.320;2023-08-30T01:09:00;22.6;68
77700;DHT22;66867;42.658;23.320;2023-08-30T01:10:00;22.6;68
77700;DHT22;66867;42.658;23.320;2023-08-30T01:11:03;22.6;68
77700;DHT22;66867;42.658;23.320;2023-08-30T01:12:01;22.7;67
77700;DHT22;66867;42.658;23.320;2023-08-30T01:13:04;22.7;68
77700;DHT22;66867;42.658;23.320;2023-08-30T01:14:03;22.6;67
77700;DHT22;66867;42.658;23.320;2023-08-30T01:15:15;22.6;67
77700;DHT22;66867;42.658;23.320;2023-08-30T01:16:00;22.6;68
77700;DHT22;66867;42.658;23.320;2023-08-30T01:17:00;22.6;68
77700;DHT22;66867;42.658;23.320;2023-08-30T01:18:00;22.6;68
77700;DHT22;66867;42.658;23.320;2023-08-30T01:19:00;22.6;68
77700;DHT22;66867;42.658;23.320;2023-08-30T01:20:00;22.6;67
77700;DHT22;66867;42.658;23.320;2023-08-30T01:21:00;22.6;67
77700;DHT22;66867;42.658;23.320;2023-08-30T01:24:00;22.6;68
77700;DHT22;66867;42.658;23.320;2023-08-30T01:26:04;22.5;68
77700;DHT22;66867;42.658;23.320;2023-08-30T01:28:01;22.5;68
77700;DHT22;66867;42.658;23.320;2023-08-30T01:29:00;22.5;68
77700;DHT22;66867;42.658;23.320;2023-08-30T01:30:00;22.5;68
77700;DHT22;66867;42.658;23.320;2023-08-30T01:31:00;22.5;68
77700;DHT22;66867;42.658;23.320;2023-08-30T01:32:00;22.5;68
77700;DHT22;66867;42.658;23.320;2023-08-30T01:33:00;22.6;68
77700;DHT22;66867;42.658;23.320;2023-08-30T01:34:01;22.6;68
77700;DHT22;66867;42.658;23.320;2023-08-30T01:35:00;22.6;68
77700;DHT22;66867;42.658;23.320;2023-08-30T01:36:00;22.6;68
77700;DHT22;66867;42.658;23.320;2023-08-30T01:37:00;22.6;67
77700;DHT22;66867;42.658;23.320;2023-08-30T01:38:00;22.6;67
77700;DHT22;66867;42.658;23.320;2023-08-30T01:39:00;22.7;67
77700;DHT22;66867;42.658;23.320;2023-08-30T01:40:00;22.7;67
77700;DHT22;66867;42.658;23.320;2023-08-30T01:41:00;22.6;67
77700;DHT22;66867;42.658;23.320;2023-08-30T01:42:00;22.6;67
77700;DHT22;66867;42.658;23.320;2023-08-30T01:43:00;22.6;67
77700;DHT22;66867;42.658;23.320;2023-08-30T01:44:00;22.7;67
77700;DHT22;66867;42.658;23.320;2023-08-30T01:45:00;22.6;67
77700;DHT22;66867;42.658;23.320;2023-08-30T01:46:00;22.6;67
77700;DHT22;66867;42.658;23.320;2023-08-30T01:47:00;22.6;67
77700;DHT22;66867;42.658;23.320;2023-08-30T01:48:00;22.6;67
77700;DHT22;66867;42.658;23.320;2023-08-30T01:49:01;22.6;67
77700;DHT22;66867;42.658;23.320;2023-08-30T01:50:00;22.6;67
77700;DHT22;66867;42.658;23.320;2023-08-30T01:51:00;22.6;68
77700;DHT22;66867;42.658;23.320;2023-08-30T01:52:00;22.7;67
77700;DHT22;66867;42.658;23.320;2023-08-30T01:53:00;22.7;68
77700;DHT22;66867;42.658;23.320;2023-08-30T01:54:00;22.6;67
77700;DHT22;66867;42.658;23.320;2023-08-30T01:55:00;22.6;67
77700;DHT22;66867;42.658;23.320;2023-08-30T01:56:00;22.6;67
77700;DHT22;66867;42.658;23.320;2023-08-30T01:57:00;22.6;67
77700;DHT22;66867;42.658;23.320;2023-08-30T01:58:00;22.6;67
77700;DHT22;66867;42.658;23.320;2023-08-30T01:59:00;22.6;67
77700;DHT22;66867;42.658;23.320;2023-08-30T02:00:00;22.6;67
77700;DHT22;66867;42.658;23.320;2023-08-30T02:01:00;22.6;67
77700;DHT22;66867;42.658;23.320;2023-08-30T02:02:00;22.6;67
77700;DHT22;66867;42.658;23.320;2023-08-30T02:03:06;22.6;66
77700;DHT22;66867;42.658;23.320;2023-08-30T02:04:00;22.6;67
77700;DHT22;66867;42.658;23.320;2023-08-30T02:05:00;22.6;67
77700;DHT22;66867;42.658;23.320;2023-08-30T02:06:02;22.6;66
77700;DHT22;66867;42.658;23.320;2023-08-30T02:07:01;22.6;66
77700;DHT22;66867;42.658;23.320;2023-08-30T02:08:03;22.6;67
77700;DHT22;66867;42.658;23.320;2023-08-30T02:09:04;22.6;67
77700;DHT22;66867;42.658;23.320;2023-08-30T02:10:01;22.6;67
77700;DHT22;66867;42.658;23.320;2023-08-30T02:11:01;22.5;67
77700;DHT22;66867;42.658;23.320;2023-08-30T02:12:00;22.6;66
77700;DHT22;66867;42.658;23.320;2023-08-30T02:13:00;22.5;66
77700;DHT22;66867;42.658;23.320;2023-08-30T02:14:00;22.5;66
77700;DHT22;66867;42.658;23.320;2023-08-30T02:15:00;22.6;66
77700;DHT22;66867;42.658;23.320;2023-08-30T02:16:00;22.6;66
77700;DHT22;66867;42.658;23.320;2023-08-30T02:17:00;22.6;66
77700;DHT22;66867;42.658;23.320;2023-08-30T02:18:00;22.6;66
77700;DHT22;66867;42.658;23.320;2023-08-30T02:19:00;22.6;66
77700;DHT22;66867;42.658;23.320;2023-08-30T02:20:00;22.6;67
77700;DHT22;66867;42.658;23.320;2023-08-30T02:21:00;22.6;67
77700;DHT22;66867;42.658;23.320;2023-08-30T02:22:00;22.6;67
77700;DHT22;66867;42.658;23.320;2023-08-30T02:23:00;22.5;67
77700;DHT22;66867;42.658;23.320;2023-08-30T02:24:00;22.5;68
77700;DHT22;66867;42.658;23.320;2023-08-30T02:25:00;22.6;68
77700;DHT22;66867;42.658;23.320;2023-08-30T02:26:01;22.5;68
77700;DHT22;66867;42.658;23.320;2023-08-30T02:27:00;22.5;68
77700;DHT22;66867;42.658;23.320;2023-08-30T02:28:00;22.5;68
77700;DHT22;66867;42.658;23.320;2023-08-30T02:29:00;22.5;68
77700;DHT22;66867;42.658;23.320;2023-08-30T02:30:00;22.5;68
77700;DHT22;66867;42.658;23.320;2023-08-30T02:31:00;22.5;69
77700;DHT22;66867;42.658;23.320;2023-08-30T02:32:00;22.5;69
77700;DHT22;66867;42.658;23.320;2023-08-30T02:33:00;22.4;69
77700;DHT22;66867;42.658;23.320;2023-08-30T02:34:00;22.4;69
77700;DHT22;66867;42.658;23.320;2023-08-30T02:35:00;22.4;69
77700;DHT22;66867;42.658;23.320;2023-08-30T02:36:00;22.5;69
77700;DHT22;66867;42.658;23.320;2023-08-30T02:37:00;22.4;69
77700;DHT22;66867;42.658;23.320;2023-08-30T02:38:00;22.4;69
77700;DHT22;66867;42.658;23.320;2023-08-30T02:39:00;22.4;68
77700;DHT22;66867;42.658;23.320;2023-08-30T02:40:00;22.4;68
77700;DHT22;66867;42.658;23.320;2023-08-30T02:41:00;22.4;68
77700;DHT22;66867;42.658;23.320;2023-08-30T02:42:00;22.3;68
77700;DHT22;66867;42.658;23.320;2023-08-30T02:43:00;22.3;68
77700;DHT22;66867;42.658;23.320;2023-08-30T02:44:00;22.3;68
77700;DHT22;66867;42.658;23.320;2023-08-30T02:45:00;22.3;69
77700;DHT22;66867;42.658;23.320;2023-08-30T02:46:00;22.2;68
77700;DHT22;66867;42.658;23.320;2023-08-30T02:47:00;22.2;68
77700;DHT22;66867;42.658;23.320;2023-08-30T02:48:00;22.2;68
77700;DHT22;66867;42.658;23.320;2023-08-30T02:49:00;22.2;68
77700;DHT22;66867;42.658;23.320;2023-08-30T02:50:00;22.2;67
77700;DHT22;66867;42.658;23.320;2023-08-30T02:51:00;22.2;68
77700;DHT22;66867;42.658;23.320;2023-08-30T02:52:00;22.2;68
77700;DHT22;66867;42.658;23.320;2023-08-30T02:53:00;22.2;68
77700;DHT22;66867;42.658;23.320;2023-08-30T02:54:00;22.2;68
77700;DHT22;66867;42.658;23.320;2023-08-30T02:55:00;22.2;68
77700;DHT22;66867;42.658;23.320;2023-08-30T02:56:00;22.2;68
77700;DHT22;66867;42.658;23.320;2023-08-30T02:57:00;22.2;68
77700;DHT22;66867;42.658;23.320;2023-08-30T02:58:00;22.2;68
77700;DHT22;66867;42.658;23.320;2023-08-30T02:59:00;22.2;68
77700;DHT22;66867;42.658;23.320;2023-08-30T03:00:00;22.1;69
77700;DHT22;66867;42.658;23.320;2023-08-30T03:01:00;22.1;69
77700;DHT22;66867;42.658;23.320;2023-08-30T03:02:00;22.1;69
77700;DHT22;66867;42.658;23.320;2023-08-30T03:03:00;22.1;70
77700;DHT22;66867;42.658;23.320;2023-08-30T03:04:00;22.1;70
77700;DHT22;66867;42.658;23.320;2023-08-30T03:05:00;22.1;70
77700;DHT22;66867;42.658;23.320;2023-08-30T03:06:01;22.1;70
77700;DHT22;66867;42.658;23.320;2023-08-30T03:07:00;22.1;70
77700;DHT22;66867;42.658;23.320;2023-08-30T03:08:00;22.1;71
77700;DHT22;66867;42.658;23.320;2023-08-30T03:09:00;22.1;71
77700;DHT22;66867;42.658;23.320;2023-08-30T03:10:00;22.1;71
77700;DHT22;66867;42.658;23.320;2023-08-30T03:11:08;22.0;71
77700;DHT22;66867;42.658;23.320;2023-08-30T03:12:00;22.0;71
77700;DHT22;66867;42.658;23.320;2023-08-30T03:13:00;22.0;71
77700;DHT22;66867;42.658;23.320;2023-08-30T03:14:00;22.0;71
77700;DHT22;66867;42.658;23.320;2023-08-30T03:15:00;21.9;71
77700;DHT22;66867;42.658;23.320;2023-08-30T03:16:00;22.0;71
77700;DHT22;66867;42.658;23.320;2023-08-30T03:17:00;22.0;71
77700;DHT22;66867;42.658;23.320;2023-08-30T03:18:00;22.0;70
77700;DHT22;66867;42.658;23.320;2023-08-30T03:19:00;22.0;71
77700;DHT22;66867;42.658;23.320;2023-08-30T03:20:00;21.9;71
77700;DHT22;66867;42.658;23.320;2023-08-30T03:21:00;21.9;71
77700;DHT22;66867;42.658;23.320;2023-08-30T03:22:00;21.9;71
77700;DHT22;66867;42.658;23.320;2023-08-30T03:23:00;21.8;71
77700;DHT22;66867;42.658;23.320;2023-08-30T03:24:00;21.8;72
77700;DHT22;66867;42.658;23.320;2023-08-30T03:25:00;21.8;72
77700;DHT22;66867;42.658;23.320;2023-08-30T03:26:09;21.7;72
77700;DHT22;66867;42.658;23.320;2023-08-30T03:27:00;21.7;72
77700;DHT22;66867;42.658;23.320;2023-08-30T03:28:00;21.7;72
77700;DHT22;66867;42.658;23.320;2023-08-30T03:29:00;21.6;73
77700;DHT22;66867;42.658;23.320;2023-08-30T03:30:00;21.7;73
77700;DHT22;66867;42.658;23.320;2023-08-30T03:31:00;21.7;73
77700;DHT22;66867;42.658;23.320;2023-08-30T03:32:00;21.7;73
77700;DHT22;66867;42.658;23.320;2023-08-30T03:33:00;21.7;73
77700;DHT22;66867;42.658;23.320;2023-08-30T03:34:00;21.7;73
77700;DHT22;66867;42.658;23.320;2023-08-30T03:35:00;21.6;73
77700;DHT22;66867;42.658;23.320;2023-08-30T03:36:00;21.7;72
77700;DHT22;66867;42.658;23.320;2023-08-30T03:37:00;21.7;72
77700;DHT22;66867;42.658;23.320;2023-08-30T03:38:00;21.7;72
77700;DHT22;66867;42.658;23.320;2023-08-30T03:39:00;21.7;72
77700;DHT22;66867;42.658;23.320;2023-08-30T03:40:00;21.7;72
77700;DHT22;66867;42.658;23.320;2023-08-30T03:41:00;21.6;72
77700;DHT22;66867;42.658;23.320;2023-08-30T03:42:00;21.6;72
77700;DHT22;66867;42.658;23.320;2023-08-30T03:43:00;21.6;72
77700;DHT22;66867;42.658;23.320;2023-08-30T03:44:00;21.6;72
77700;DHT22;66867;42.658;23.320;2023-08-30T03:45:00;21.5;73
77700;DHT22;66867;42.658;23.320;2023-08-30T03:46:00;21.5;73
77700;DHT22;66867;42.658;23.320;2023-08-30T03:47:00;21.5;73
77700;DHT22;66867;42.658;23.320;2023-08-30T03:48:00;21.5;73
77700;DHT22;66867;42.658;23.320;2023-08-30T03:49:00;21.4;73
77700;DHT22;66867;42.658;23.320;2023-08-30T03:50:00;21.4;73
77700;DHT22;66867;42.658;23.320;2023-08-30T03:51:00;21.4;73
77700;DHT22;66867;42.658;23.320;2023-08-30T03:52:00;21.4;73
77700;DHT22;66867;42.658;23.320;2023-08-30T03:53:00;21.4;73
77700;DHT22;66867;42.658;23.320;2023-08-30T03:54:00;21.4;74
77700;DHT22;66867;42.658;23.320;2023-08-30T03:55:00;21.4;74
77700;DHT22;66867;42.658;23.320;2023-08-30T03:56:00;21.4;74
77700;DHT22;66867;42.658;23.320;2023-08-30T03:57:00;21.4;74
77700;DHT22;66867;42.658;23.320;2023-08-30T03:58:00;21.4;74
77700;DHT22;66867;42.658;23.320;2023-08-30T03:59:00;21.3;75
77700;DHT22;66867;42.658;23.320;2023-08-30T04:00:00;21.4;75
77700;DHT22;66867;42.658;23.320;2023-08-30T04:01:00;21.4;75
77700;DHT22;66867;42.658;23.320;2023-08-30T04:02:00;21.4;75
77700;DHT22;66867;42.658;23.320;2023-08-30T04:03:00;21.4;75
77700;DHT22;66867;42.658;23.320;2023-08-30T04:04:00;21.4;75
77700;DHT22;66867;42.658;23.320;2023-08-30T04:05:00;21.4;75
77700;DHT22;66867;42.658;23.320;2023-08-30T04:06:00;21.4;75
77700;DHT22;66867;42.658;23.320;2023-08-30T04:07:00;21.4;75
77700;DHT22;66867;42.658;23.320;2023-08-30T04:08:02;21.5;75
77700;DHT22;66867;42.658;23.320;2023-08-30T04:09:00;21.5;76
77700;DHT22;66867;42.658;23.320;2023-08-30T04:10:00;21.5;75
77700;DHT22;66867;42.658;23.320;2023-08-30T04:11:01;21.5;74
77700;DHT22;66867;42.658;23.320;2023-08-30T04:12:00;21.5;74
77700;DHT22;66867;42.658;23.320;2023-08-30T04:13:00;21.5;74
77700;DHT22;66867;42.658;23.320;2023-08-30T04:14:00;21.5;73
77700;DHT22;66867;42.658;23.320;2023-08-30T04:15:00;21.6;72
77700;DHT22;66867;42.658;23.320;2023-08-30T04:16:00;21.6;72
77700;DHT22;66867;42.658;23.320;2023-08-30T04:17:00;21.6;71
77700;DHT22;66867;42.658;23.320;2023-08-30T04:18:00;21.6;70
77700;DHT22;66867;42.658;23.320;2023-08-30T04:19:00;21.7;70
77700;DHT22;66867;42.658;23.320;2023-08-30T04:20:00;21.7;70
77700;DHT22;66867;42.658;23.320;2023-08-30T04:21:00;21.7;70
77700;DHT22;66867;42.658;23.320;2023-08-30T04:22:00;21.7;70
77700;DHT22;66867;42.658;23.320;2023-08-30T04:23:00;21.7;70
77700;DHT22;66867;42.658;23.320;2023-08-30T04:24:00;21.7;70
77700;DHT22;66867;42.658;23.320;2023-08-30T04:25:00;21.8;70
77700;DHT22;66867;42.658;23.320;2023-08-30T04:26:00;21.8;70
77700;DHT22;66867;42.658;23.320;2023-08-30T04:27:00;21.8;70
77700;DHT22;66867;42.658;23.320;2023-08-30T04:28:00;21.9;72
77700;DHT22;66867;42.658;23.320;2023-08-30T04:29:00;21.9;73
77700;DHT22;66867;42.658;23.320;2023-08-30T04:30:00;21.9;74
77700;DHT22;66867;42.658;23.320;2023-08-30T04:31:00;21.8;72
77700;DHT22;66867;42.658;23.320;2023-08-30T04:32:00;21.8;73
77700;DHT22;66867;42.658;23.320;2023-08-30T04:33:00;21.9;73
77700;DHT22;66867;42.658;23.320;2023-08-30T04:34:00;21.9;73
77700;DHT22;66867;42.658;23.320;2023-08-30T04:35:00;21.9;74
77700;DHT22;66867;42.658;23.320;2023-08-30T04:36:00;21.9;74
77700;DHT22;66867;42.658;23.320;2023-08-30T04:37:00;21.9;75
77700;DHT22;66867;42.658;23.320;2023-08-30T04:38:00;21.9;75
77700;DHT22;66867;42.658;23.320;2023-08-30T04:39:00;21.9;74
77700;DHT22;66867;42.658;23.320;2023-08-30T04:40:00;21.9;74
77700;DHT22;66867;42.658;23.320;2023-08-30T04:41:00;22.0;74
77700;DHT22;66867;42.658;23.320;2023-08-30T04:42:00;22.0;74
77700;DHT22;66867;42.658;23.320;2023-08-30T04:43:00;22.0;74
77700;DHT22;66867;42.658;23.320;2023-08-30T04:44:00;22.0;74
77700;DHT22;66867;42.658;23.320;2023-08-30T04:45:00;22.0;74
77700;DHT22;66867;42.658;23.320;2023-08-30T04:46:00;22.1;74
77700;DHT22;66867;42.658;23.320;2023-08-30T04:47:00;22.0;74
77700;DHT22;66867;42.658;23.320;2023-08-30T04:48:00;22.1;74
77700;DHT22;66867;42.658;23.320;2023-08-30T04:49:00;22.1;73
77700;DHT22;66867;42.658;23.320;2023-08-30T04:50:00;22.1;73
77700;DHT22;66867;42.658;23.320;2023-08-30T04:51:01;22.1;72
77700;DHT22;66867;42.658;23.320;2023-08-30T04:52:00;22.1;70
77700;DHT22;66867;42.658;23.320;2023-08-30T04:53:00;22.1;72
77700;DHT22;66867;42.658;23.320;2023-08-30T04:54:00;22.1;72
77700;DHT22;66867;42.658;23.320;2023-08-30T04:55:00;22.2;71
77700;DHT22;66867;42.658;23.320;2023-08-30T04:56:00;22.1;72
77700;DHT22;66867;42.658;23.320;2023-08-30T04:57:00;22.1;71
77700;DHT22;66867;42.658;23.320;2023-08-30T04:58:00;22.2;70
77700;DHT22;66867;42.658;23.320;2023-08-30T04:59:00;22.1;69
77700;DHT22;66867;42.658;23.320;2023-08-30T05:00:00;22.2;69
77700;DHT22;66867;42.658;23.320;2023-08-30T05:01:00;22.2;67
77700;DHT22;66867;42.658;23.320;2023-08-30T05:02:00;22.2;68
77700;DHT22;66867;42.658;23.320;2023-08-30T05:03:00;22.1;67
77700;DHT22;66867;42.658;23.320;2023-08-30T05:04:00;22.1;65
77700;DHT22;66867;42.658;23.320;2023-08-30T05:05:00;22.1;65
77700;DHT22;66867;42.658;23.320;2023-08-30T05:06:00;22.1;64
77700;DHT22;66867;42.658;23.320;2023-08-30T05:07:00;22.1;64
77700;DHT22;66867;42.658;23.320;2023-08-30T05:08:00;22.1;64
77700;DHT22;66867;42.658;23.320;2023-08-30T05:09:00;22.1;64
77700;DHT22;66867;42.658;23.320;2023-08-30T05:10:00;22.1;64
77700;DHT22;66867;42.658;23.320;2023-08-30T05:11:00;22.2;64
77700;DHT22;66867;42.658;23.320;2023-08-30T05:12:00;22.1;64
77700;DHT22;66867;42.658;23.320;2023-08-30T05:13:00;22.2;64
77700;DHT22;66867;42.658;23.320;2023-08-30T05:14:00;22.1;64
77700;DHT22;66867;42.658;23.320;2023-08-30T05:15:00;22.1;64
77700;DHT22;66867;42.658;23.320;2023-08-30T05:16:00;22.2;64
77700;DHT22;66867;42.658;23.320;2023-08-30T05:17:00;22.2;65
77700;DHT22;66867;42.658;23.320;2023-08-30T05:18:00;22.2;64
77700;DHT22;66867;42.658;23.320;2023-08-30T05:19:00;22.2;64
77700;DHT22;66867;42.658;23.320;2023-08-30T05:20:00;22.2;65
77700;DHT22;66867;42.658;23.320;2023-08-30T05:21:00;22.3;65
77700;DHT22;66867;42.658;23.320;2023-08-30T05:22:00;22.3;65
77700;DHT22;66867;42.658;23.320;2023-08-30T05:23:00;22.3;65
77700;DHT22;66867;42.658;23.320;2023-08-30T05:24:00;22.4;65
77700;DHT22;66867;42.658;23.320;2023-08-30T05:25:00;22.4;65
77700;DHT22;66867;42.658;23.320;2023-08-30T05:26:00;22.4;64
77700;DHT22;66867;42.658;23.320;2023-08-30T05:27:00;22.4;64
77700;DHT22;66867;42.658;23.320;2023-08-30T05:28:00;22.4;64
77700;DHT22;66867;42.658;23.320;2023-08-30T05:29:00;22.5;65
77700;DHT22;66867;42.658;23.320;2023-08-30T05:30:00;22.5;64
77700;DHT22;66867;42.658;23.320;2023-08-30T05:31:00;22.5;64
77700;DHT22;66867;42.658;23.320;2023-08-30T05:32:00;22.5;64
77700;DHT22;66867;42.658;23.320;2023-08-30T05:33:00;22.5;64
77700;DHT22;66867;42.658;23.320;2023-08-30T05:34:00;22.5;64
77700;DHT22;66867;42.658;23.320;2023-08-30T05:35:00;22.5;64
77700;DHT22;66867;42.658;23.320;2023-08-30T05:36:00;22.5;63
77700;DHT22;66867;42.658;23.320;2023-08-30T05:37:00;22.5;63
77700;DHT22;66867;42.658;23.320;2023-08-30T05:38:00;22.5;63
77700;DHT22;66867;42.658;23.320;2023-08-30T05:39:00;22.4;63
77700;DHT22;66867;42.658;23.320;2023-08-30T05:40:00;22.4;64
77700;DHT22;66867;42.658;23.320;2023-08-30T05:41:00;22.4;65
77700;DHT22;66867;42.658;23.320;2023-08-30T05:42:00;22.4;64
77700;DHT22;66867;42.658;23.320;2023-08-30T05:43:00;22.5;66
77700;DHT22;66867;42.658;23.320;2023-08-30T05:44:00;22.5;65
77700;DHT22;66867;42.658;23.320;2023-08-30T05:45:00;22.5;66
77700;DHT22;66867;42.658;23.320;2023-08-30T05:46:00;22.6;66
77700;DHT22;66867;42.658;23.320;2023-08-30T05:47:00;22.6;65
77700;DHT22;66867;42.658;23.320;2023-08-30T05:48:00;22.6;65
77700;DHT22;66867;42.658;23.320;2023-08-30T05:49:00;22.7;65
77700;DHT22;66867;42.658;23.320;2023-08-30T05:50:00;22.7;65
77700;DHT22;66867;42.658;23.320;2023-08-30T05:51:00;22.8;65
77700;DHT22;66867;42.658;23.320;2023-08-30T05:52:00;22.8;64
77700;DHT22;66867;42.658;23.320;2023-08-30T05:53:00;22.8;65
77700;DHT22;66867;42.658;23.320;2023-08-30T05:54:00;22.8;64
77700;DHT22;66867;42.658;23.320;2023-08-30T05:55:00;22.8;64
77700;DHT22;66867;42.658;23.320;2023-08-30T05:56:00;22.9;64
77700;DHT22;66867;42.658;23.320;2023-08-30T05:57:00;22.9;64
77700;DHT22;66867;42.658;23.320;2023-08-30T05:58:00;23.0;64
77700;DHT22;66867;42.658;23.320;2023-08-30T05:59:00;23.0;64
77700;DHT22;66867;42.658;23.320;2023-08-30T06:00:01;23.0;64
77700;DHT22;66867;42.658;23.320;2023-08-30T06:01:00;23.1;63
77700;DHT22;66867;42.658;23.320;2023-08-30T06:02:00;23.1;64
77700;DHT22;66867;42.658;23.320;2023-08-30T06:03:00;23.2;64
77700;DHT22;66867;42.658;23.320;2023-08-30T06:04:00;23.2;64
77700;DHT22;66867;42.658;23.320;2023-08-30T06:05:00;23.2;64
77700;DHT22;66867;42.658;23.320;2023-08-30T06:06:00;23.3;63
77700;DHT22;66867;42.658;23.320;2023-08-30T06:07:00;23.3;63
77700;DHT22;66867;42.658;23.320;2023-08-30T06:08:00;23.3;63
77700;DHT22;66867;42.658;23.320;2023-08-30T06:09:00;23.4;63
77700;DHT22;66867;42.658;23.320;2023-08-30T06:10:00;23.4;62
77700;DHT22;66867;42.658;23.320;2023-08-30T06:11:00;23.4;62
77700;DHT22;66867;42.658;23.320;2023-08-30T06:12:00;23.4;62
77700;DHT22;66867;42.658;23.320;2023-08-30T06:13:00;23.4;62
77700;DHT22;66867;42.658;23.320;2023-08-30T06:14:00;23.5;62
77700;DHT22;66867;42.658;23.320;2023-08-30T06:15:00;23.5;62
77700;DHT22;66867;42.658;23.320;2023-08-30T06:16:00;23.6;62
77700;DHT22;66867;42.658;23.320;2023-08-30T06:17:00;23.6;62
77700;DHT22;66867;42.658;23.320;2023-08-30T06:18:00;23.7;62
77700;DHT22;66867;42.658;23.320;2023-08-30T06:19:00;23.8;61
77700;DHT22;66867;42.658;23.320;2023-08-30T06:20:00;23.8;61
77700;DHT22;66867;42.658;23.320;2023-08-30T06:21:00;23.9;61
77700;DHT22;66867;42.658;23.320;2023-08-30T06:22:00;23.9;61
77700;DHT22;66867;42.658;23.320;2023-08-30T06:23:02;24.0;60
77700;DHT22;66867;42.658;23.320;2023-08-30T06:24:00;24.0;60
77700;DHT22;66867;42.658;23.320;2023-08-30T06:25:00;24.0;60
77700;DHT22;66867;42.658;23.320;2023-08-30T06:26:00;24.1;60
77700;DHT22;66867;42.658;23.320;2023-08-30T06:27:00;24.1;60
77700;DHT22;66867;42.658;23.320;2023-08-30T06:28:00;24.1;60
77700;DHT22;66867;42.658;23.320;2023-08-30T06:29:00;24.1;60
77700;DHT22;66867;42.658;23.320;2023-08-30T06:30:00;24.1;59
77700;DHT22;66867;42.658;23.320;2023-08-30T06:31:00;24.1;60
77700;DHT22;66867;42.658;23.320;2023-08-30T06:32:00;24.2;60
77700;DHT22;66867;42.658;23.320;2023-08-30T06:33:00;24.3;60
77700;DHT22;66867;42.658;23.320;2023-08-30T06:34:00;24.3;60
77700;DHT22;66867;42.658;23.320;2023-08-30T06:35:00;24.3;60
77700;DHT22;66867;42.658;23.320;2023-08-30T06:36:00;24.4;60
77700;DHT22;66867;42.658;23.320;2023-08-30T06:37:00;24.5;61
77700;DHT22;66867;42.658;23.320;2023-08-30T06:38:00;24.5;61
77700;DHT22;66867;42.658;23.320;2023-08-30T06:39:00;24.6;60
77700;DHT22;66867;42.658;23.320;2023-08-30T06:40:00;24.6;59
77700;DHT22;66867;42.658;23.320;2023-08-30T06:41:00;24.5;58